sensor_id;sensor_type;location;lat;lon;timestamp;temperature;humidity
52397;DHT22;38322;53.108;6.308;2023-05-29T05:02:13;9.20;99.90
52397;DHT22;38322;53.108;6.308;2023-05-29T05:04:39;9.30;99.90
52397;DHT22;38322;53.108;6.308;2023-05-29T05:07:05;9.30;99.90
52397;DHT22;38322;53.108;6.308;2023-05-29T05:09:31;9.30;99.90
52397;DHT22;38322;53.108;6.308;2023-05-29T05:11:57;9.30;99.90
52397;DHT22;38322;53.108;6.308;2023-05-29T05:14:23;9.40;99.90
52397;DHT22;38322;53.108;6.308;2023-05-29T05:16:49;9.50;99.90
52397;DHT22;38322;53.108;6.308;2023-05-29T05:19:15;9.60;99.90
52397;DHT22;38322;53.108;6.308;2023-05-29T05:21:41;9.70;99.90
52397;DHT22;38322;53.108;6.308;2023-05-29T05:24:06;9.80;99.90
52397;DHT22;38322;53.108;6.308;2023-05-29T05:26:32;9.80;99.90
52397;DHT22;38322;53.108;6.308;2023-05-29T05:28:58;9.90;99.90
52397;DHT22;38322;53.108;6.308;2023-05-29T05:31:24;10.00;99.90
52397;DHT22;38322;53.108;6.308;2023-05-29T05:33:50;10.00;99.90
52397;DHT22;38322;53.108;6.308;2023-05-29T05:36:16;10.10;99.90
52397;DHT22;38322;53.108;6.308;2023-05-29T05:38:42;10.20;99.90
52397;DHT22;38322;53.108;6.308;2023-05-29T05:41:08;10.30;99.90
52397;DHT22;38322;53.108;6.308;2023-05-29T05:43:34;10.40;99.90
52397;DHT22;38322;53.108;6.308;2023-05-29T05:46:00;10.50;99.90
52397;DHT22;38322;53.108;6.308;2023-05-29T05:48:25;10.60;99.90
52397;DHT22;38322;53.108;6.308;2023-05-29T05:50:51;10.70;99.90
52397;DHT22;38322;53.108;6.308;2023-05-29T05:53:17;10.60;99.90
52397;DHT22;38322;53.108;6.308;2023-05-29T05:55:43;10.60;99.90
52397;DHT22;38322;53.108;6.308;2023-05-29T05:58:09;10.60;99.90
52397;DHT22;38322;53.108;6.308;2023-05-29T06:00:35;10.60;99.90
52397;DHT22;38322;53.108;6.308;2023-05-29T06:03:01;10.60;99.90
52397;DHT22;38322;53.108;6.308;2023-05-29T06:05:29;10.70;99.90
52397;DHT22;38322;53.108;6.308;2023-05-29T06:07:55;10.80;99.90
52397;DHT22;38322;53.108;6.308;2023-05-29T06:10:21;10.80;99.90
52397;DHT22;38322;53.108;6.308;2023-05-29T06:12:47;10.90;99.90
52397;DHT22;38322;53.108;6.308;2023-05-29T06:15:13;10.90;99.90
52397;DHT22;38322;53.108;6.308;2023-05-29T06:17:39;10.80;99.90
52397;DHT22;38322;53.108;6.308;2023-05-29T06:20:05;10.80;99.90
52397;DHT22;38322;53.108;6.308;2023-05-29T06:22:36;10.70;99.90
52397;DHT22;38322;53.108;6.308;2023-05-29T06:25:03;10.70;99.90
52397;DHT22;38322;53.108;6.308;2023-05-29T06:27:29;10.70;99.90
52397;DHT22;38322;53.108;6.308;2023-05-29T06:29:55;10.70;99.90
52397;DHT22;38322;53.108;6.308;2023-05-29T06:32:21;10.70;99.90
52397;DHT22;38322;53.108;6.308;2023-05-29T06:34:47;10.70;99.90
52397;DHT22;38322;53.108;6.308;2023-05-29T06:37:13;10.70;99.90
52397;DHT22;38322;53.108;6.308;2023-05-29T06:39:39;10.80;99.90
52397;DHT22;38322;53.108;6.308;2023-05-29T06:42:08;10.70;99.90
52397;DHT22;38322;53.108;6.308;2023-05-29T06:44:34;10.70;99.90
52397;DHT22;38322;53.108;6.308;2023-05-29T06:47:00;10.80;99.90
52397;DHT22;38322;53.108;6.308;2023-05-29T06:49:26;10.80;99.90
52397;DHT22;38322;53.108;6.308;2023-05-29T06:51:51;10.90;99.90
52397;DHT22;38322;53.108;6.308;2023-05-29T06:54:17;10.90;99.90
52397;DHT22;38322;53.108;6.308;2023-05-29T06:56:43;11.10;99.90
52397;DHT22;38322;53.108;6.308;2023-05-29T06:59:09;11.30;99.90
52397;DHT22;38322;53.108;6.308;2023-05-29T07:01:35;11.40;99.90
52397;DHT22;38322;53.108;6.308;2023-05-29T07:04:01;11.50;99.90
52397;DHT22;38322;53.108;6.308;2023-05-29T07:06:27;11.60;99.90
52397;DHT22;38322;53.108;6.308;2023-05-29T07:08:52;11.80;99.90
52397;DHT22;38322;53.108;6.308;2023-05-29T07:11:18;11.90;99.90
52397;DHT22;38322;53.108;6.308;2023-05-29T07:13:44;11.90;99.90
52397;DHT22;38322;53.108;6.308;2023-05-29T07:16:10;12.00;99.90
52397;DHT22;38322;53.108;6.308;2023-05-29T07:18:36;11.90;99.90
52397;DHT22;38322;53.108;6.308;2023-05-29T07:21:01;11.90;99.90
52397;DHT22;38322;53.108;6.308;2023-05-29T07:23:27;11.80;99.90
52397;DHT22;38322;53.108;6.308;2023-05-29T07:25:53;11.80;99.90
52397;DHT22;38322;53.108;6.308;2023-05-29T07:28:19;11.80;99.90
52397;DHT22;38322;53.108;6.308;2023-05-29T07:30:45;11.80;99.90
52397;DHT22;38322;53.108;6.308;2023-05-29T07:33:10;11.80;99.90
52397;DHT22;38322;53.108;6.308;2023-05-29T07:35:36;11.70;99.90
52397;DHT22;38322;53.108;6.308;2023-05-29T07:38:02;11.80;99.90
52397;DHT22;38322;53.108;6.308;2023-05-29T07:40:28;11.80;99.90
52397;DHT22;38322;53.108;6.308;2023-05-29T07:42:54;11.80;99.90
52397;DHT22;38322;53.108;6.308;2023-05-29T07:45:20;11.90;99.90
52397;DHT22;38322;53.108;6.308;2023-05-29T07:47:46;11.80;99.90
52397;DHT22;38322;53.108;6.308;2023-05-29T07:50:14;11.80;99.90
52397;DHT22;38322;53.108;6.308;2023-05-29T07:52:40;11.90;99.90
52397;DHT22;38322;53.108;6.308;2023-05-29T07:55:07;12.00;99.90
52397;DHT22;38322;53.108;6.308;2023-05-29T07:57:33;12.10;99.90
52397;DHT22;38322;53.108;6.308;2023-05-29T07:59:59;12.20;99.90
52397;DHT22;38322;53.108;6.308;2023-05-29T08:02:25;12.30;99.90
52397;DHT22;38322;53.108;6.308;2023-05-29T08:04:52;12.40;99.90
52397;DHT22;38322;53.108;6.308;2023-05-29T08:07:17;12.50;99.90
52397;DHT22;38322;53.108;6.308;2023-05-29T08:09:43;12.30;99.90
52397;DHT22;38322;53.108;6.308;2023-05-29T08:12:09;12.30;99.90
52397;DHT22;38322;53.108;6.308;2023-05-29T08:14:35;12.40;99.90
52397;DHT22;38322;53.108;6.308;2023-05-29T08:17:01;12.50;99.90
52397;DHT22;38322;53.108;6.308;2023-05-29T08:19:26;12.60;99.90
52397;DHT22;38322;53.108;6.308;2023-05-29T08:21:52;12.70;99.90
52397;DHT22;38322;53.108;6.308;2023-05-29T08:24:18;12.70;99.90
52397;DHT22;38322;53.108;6.308;2023-05-29T08:26:45;12.60;99.90
52397;DHT22;38322;53.108;6.308;2023-05-29T08:29:11;12.60;99.90
52397;DHT22;38322;53.108;6.308;2023-05-29T08:31:37;12.60;99.90
52397;DHT22;38322;53.108;6.308;2023-05-29T08:34:02;12.70;99.90
52397;DHT22;38322;53.108;6.308;2023-05-29T08:36:28;12.60;99.90
52397;DHT22;38322;53.108;6.308;2023-05-29T08:38:54;12.60;99.90
52397;DHT22;38322;53.108;6.308;2023-05-29T08:41:25;12.70;99.90
52397;DHT22;38322;53.108;6.308;2023-05-29T08:43:52;12.70;99.90
52397;DHT22;38322;53.108;6.308;2023-05-29T08:46:19;12.70;99.90
52397;DHT22;38322;53.108;6.308;2023-05-29T08:48:48;12.70;99.90
52397;DHT22;38322;53.108;6.308;2023-05-29T08:51:19;12.80;99.90
52397;DHT22;38322;53.108;6.308;2023-05-29T08:53:47;12.90;99.90
52397;DHT22;38322;53.108;6.308;2023-05-29T08:56:12;12.80;99.90
52397;DHT22;38322;53.108;6.308;2023-05-29T08:58:38;12.90;99.90
52397;DHT22;38322;53.108;6.308;2023-05-29T09:01:05;12.90;99.90
52397;DHT22;38322;53.108;6.308;2023-05-29T09:03:31;13.00;99.90
52397;DHT22;38322;53.108;6.308;2023-05-29T09:05:59;13.00;99.90
52397;DHT22;38322;53.108;6.308;2023-05-29T09:08:25;13.00;99.90
52397;DHT22;38322;53.108;6.308;2023-05-29T09:10:52;12.90;99.90
52397;DHT22;38322;53.108;6.308;2023-05-29T09:13:18;12.80;99.90
52397;DHT22;38322;53.108;6.308;2023-05-29T09:15:44;12.70;99.90
52397;DHT22;38322;53.108;6.308;2023-05-29T09:18:11;12.60;99.90
52397;DHT22;38322;53.108;6.308;2023-05-29T09:20:37;12.60;99.90
52397;DHT22;38322;53.108;6.308;2023-05-29T09:23:06;12.50;99.90
52397;DHT22;38322;53.108;6.308;2023-05-29T09:25:34;12.50;99.90
52397;DHT22;38322;53.108;6.308;2023-05-29T09:28:02;12.50;99.90
52397;DHT22;38322;53.108;6.308;2023-05-29T09:30:32;12.60;99.90
52397;DHT22;38322;53.108;6.308;2023-05-29T09:33:00;12.70;99.90
52397;DHT22;38322;53.108;6.308;2023-05-29T09:35:33;12.80;99.90
52397;DHT22;38322;53.108;6.308;2023-05-29T09:37:59;12.80;99.90
52397;DHT22;38322;53.108;6.308;2023-05-29T09:40:25;12.90;99.90
52397;DHT22;38322;53.108;6.308;2023-05-29T09:42:51;12.90;99.90
52397;DHT22;38322;53.108;6.308;2023-05-29T09:45:18;13.10;99.90
52397;DHT22;38322;53.108;6.308;2023-05-29T09:47:44;13.20;99.90
52397;DHT22;38322;53.108;6.308;2023-05-29T09:50:18;13.20;99.90
52397;DHT22;38322;53.108;6.308;2023-05-29T09:52:50;13.10;99.90
52397;DHT22;38322;53.108;6.308;2023-05-29T09:55:20;13.30;99.90
52397;DHT22;38322;53.108;6.308;2023-05-29T09:57:47;13.30;99.90
52397;DHT22;38322;53.108;6.308;2023-05-29T10:00:16;13.20;99.90
52397;DHT22;38322;53.108;6.308;2023-05-29T10:02:43;13.30;99.90
52397;DHT22;38322;53.108;6.308;2023-05-29T10:05:09;13.20;99.90
52397;DHT22;38322;53.108;6.308;2023-05-29T10:07:37;13.40;99.90
52397;DHT22;38322;53.108;6.308;2023-05-29T10:10:06;13.40;99.90
52397;DHT22;38322;53.108;6.308;2023-05-29T10:12:37;13.40;99.90
52397;DHT22;38322;53.108;6.308;2023-05-29T10:15:11;13.40;99.90
52397;DHT22;38322;53.108;6.308;2023-05-29T10:17:43;13.50;99.90
52397;DHT22;38322;53.108;6.308;2023-05-29T10:20:13;13.70;99.90
52397;DHT22;38322;53.108;6.308;2023-05-29T10:22:45;13.80;99.90
52397;DHT22;38322;53.108;6.308;2023-05-29T10:25:13;13.90;99.90
52397;DHT22;38322;53.108;6.308;2023-05-29T10:27:41;13.90;99.90
52397;DHT22;38322;53.108;6.308;2023-05-29T10:33:17;13.70;99.90
52397;DHT22;38322;53.108;6.308;2023-05-29T10:36:01;13.60;99.90
52397;DHT22;38322;53.108;6.308;2023-05-29T10:38:28;13.70;99.90
52397;DHT22;38322;53.108;6.308;2023-05-29T10:40:54;13.60;99.90
52397;DHT22;38322;53.108;6.308;2023-05-29T10:43:31;13.60;99.90
52397;DHT22;38322;53.108;6.308;2023-05-29T10:45:58;13.80;99.90
52397;DHT22;38322;53.108;6.308;2023-05-29T10:50:54;13.90;99.90
52397;DHT22;38322;53.108;6.308;2023-05-29T10:53:31;14.00;99.90
52397;DHT22;38322;53.108;6.308;2023-05-29T10:55:59;14.00;99.90
52397;DHT22;38322;53.108;6.308;2023-05-29T10:58:26;14.10;99.90
52397;DHT22;38322;53.108;6.308;2023-05-29T11:00:54;14.20;99.90
52397;DHT22;38322;53.108;6.308;2023-05-29T11:03:24;14.30;99.90
52397;DHT22;38322;53.108;6.308;2023-05-29T11:06:01;14.20;99.90
52397;DHT22;38322;53.108;6.308;2023-05-29T11:08:41;14.20;99.90
52397;DHT22;38322;53.108;6.308;2023-05-29T11:11:12;14.20;99.90
52397;DHT22;38322;53.108;6.308;2023-05-29T11:13:38;14.20;99.90
52397;DHT22;38322;53.108;6.308;2023-05-29T11:18:44;14.20;99.90
52397;DHT22;38322;53.108;6.308;2023-05-29T11:21:44;14.00;99.90
52397;DHT22;38322;53.108;6.308;2023-05-29T11:24:22;14.20;99.90
52397;DHT22;38322;53.108;6.308;2023-05-29T11:26:51;14.20;99.90
52397;DHT22;38322;53.108;6.308;2023-05-29T11:29:22;14.30;99.90
52397;DHT22;38322;53.108;6.308;2023-05-29T11:31:58;14.40;99.90
52397;DHT22;38322;53.108;6.308;2023-05-29T11:34:26;14.40;99.90
52397;DHT22;38322;53.108;6.308;2023-05-29T11:36:53;14.50;99.90
52397;DHT22;38322;53.108;6.308;2023-05-29T11:39:19;14.40;99.90
52397;DHT22;38322;53.108;6.308;2023-05-29T11:41:50;14.40;99.90
52397;DHT22;38322;53.108;6.308;2023-05-29T11:44:16;14.40;99.90
52397;DHT22;38322;53.108;6.308;2023-05-29T11:46:42;14.50;99.90
52397;DHT22;38322;53.108;6.308;2023-05-29T11:49:07;14.40;99.90
52397;DHT22;38322;53.108;6.308;2023-05-29T11:51:33;14.50;99.90
52397;DHT22;38322;53.108;6.308;2023-05-29T11:53:59;14.60;99.90
52397;DHT22;38322;53.108;6.308;2023-05-29T11:56:27;14.70;99.90
52397;DHT22;38322;53.108;6.308;2023-05-29T11:58:54;14.70;99.90
52397;DHT22;38322;53.108;6.308;2023-05-29T12:01:23;14.80;99.90
52397;DHT22;38322;53.108;6.308;2023-05-29T12:03:50;14.90;99.90
52397;DHT22;38322;53.108;6.308;2023-05-29T12:06:16;14.90;99.90
52397;DHT22;38322;53.108;6.308;2023-05-29T12:08:56;14.80;99.90
52397;DHT22;38322;53.108;6.308;2023-05-29T12:11:23;14.90;99.90
52397;DHT22;38322;53.108;6.308;2023-05-29T12:13:56;14.80;99.90
52397;DHT22;38322;53.108;6.308;2023-05-29T12:16:23;14.80;99.90
52397;DHT22;38322;53.108;6.308;2023-05-29T12:18:49;14.60;99.90
52397;DHT22;38322;53.108;6.308;2023-05-29T12:21:15;14.70;99.90
52397;DHT22;38322;53.108;6.308;2023-05-29T12:23:41;14.80;99.90
52397;DHT22;38322;53.108;6.308;2023-05-29T12:26:07;14.80;99.90
52397;DHT22;38322;53.108;6.308;2023-05-29T12:28:32;14.70;99.90
52397;DHT22;38322;53.108;6.308;2023-05-29T12:30:59;14.80;99.90
52397;DHT22;38322;53.108;6.308;2023-05-29T12:33:32;15.10;99.90
52397;DHT22;38322;53.108;6.308;2023-05-29T12:36:05;15.30;99.90
52397;DHT22;38322;53.108;6.308;2023-05-29T12:38:41;15.50;99.90
52397;DHT22;38322;53.108;6.308;2023-05-29T12:41:23;15.30;99.90
52397;DHT22;38322;53.108;6.308;2023-05-29T12:43:49;15.30;99.90
52397;DHT22;38322;53.108;6.308;2023-05-29T12:46:16;15.10;99.90
52397;DHT22;38322;53.108;6.308;2023-05-29T12:48:42;15.10;99.90
52397;DHT22;38322;53.108;6.308;2023-05-29T12:51:07;15.30;99.90
52397;DHT22;38322;53.108;6.308;2023-05-29T12:53:33;15.30;99.90
52397;DHT22;38322;53.108;6.308;2023-05-29T12:55:59;15.50;99.90
52397;DHT22;38322;53.108;6.308;2023-05-29T12:58:25;15.50;99.90
52397;DHT22;38322;53.108;6.308;2023-05-29T13:00:53;15.60;99.90
52397;DHT22;38322;53.108;6.308;2023-05-29T13:03:21;15.60;99.90
52397;DHT22;38322;53.108;6.308;2023-05-29T13:05:50;15.60;99.90
52397;DHT22;38322;53.108;6.308;2023-05-29T13:08:16;15.60;99.90
52397;DHT22;38322;53.108;6.308;2023-05-29T13:10:42;15.40;99.90
52397;DHT22;38322;53.108;6.308;2023-05-29T13:13:08;15.40;99.90
52397;DHT22;38322;53.108;6.308;2023-05-29T13:15:35;15.50;99.90
52397;DHT22;38322;53.108;6.308;2023-05-29T13:18:01;15.60;99.90
52397;DHT22;38322;53.108;6.308;2023-05-29T13:20:27;15.50;99.90
52397;DHT22;38322;53.108;6.308;2023-05-29T13:22:53;15.30;99.90
52397;DHT22;38322;53.108;6.308;2023-05-29T13:25:19;15.40;99.90
52397;DHT22;38322;53.108;6.308;2023-05-29T13:27:47;15.30;99.90
52397;DHT22;38322;53.108;6.308;2023-05-29T13:30:15;15.30;99.90
52397;DHT22;38322;53.108;6.308;2023-05-29T13:32:41;15.20;99.90
52397;DHT22;38322;53.108;6.308;2023-05-29T13:35:08;15.20;99.90
52397;DHT22;38322;53.108;6.308;2023-05-29T13:37:35;15.40;99.90
52397;DHT22;38322;53.108;6.308;2023-05-29T13:40:01;15.60;99.90
52397;DHT22;38322;53.108;6.308;2023-05-29T13:42:28;15.70;99.90
52397;DHT22;38322;53.108;6.308;2023-05-29T13:44:53;15.50;99.90
52397;DHT22;38322;53.108;6.308;2023-05-29T13:47:20;15.50;99.90
52397;DHT22;38322;53.108;6.308;2023-05-29T13:49:45;15.60;99.90
52397;DHT22;38322;53.108;6.308;2023-05-29T13:52:11;15.80;99.90
52397;DHT22;38322;53.108;6.308;2023-05-29T13:54:38;15.70;99.90
52397;DHT22;38322;53.108;6.308;2023-05-29T13:57:05;15.70;99.90
52397;DHT22;38322;53.108;6.308;2023-05-29T13:59:33;15.60;99.90
52397;DHT22;38322;53.108;6.308;2023-05-29T14:02:00;15.90;99.90
52397;DHT22;38322;53.108;6.308;2023-05-29T14:04:28;15.80;99.90
52397;DHT22;38322;53.108;6.308;2023-05-29T14:06:54;16.00;99.90
52397;DHT22;38322;53.108;6.308;2023-05-29T14:09:20;16.20;99.90
52397;DHT22;38322;53.108;6.308;2023-05-29T14:11:54;16.20;99.90
52397;DHT22;38322;53.108;6.308;2023-05-29T14:14:21;16.00;99.90
52397;DHT22;38322;53.108;6.308;2023-05-29T14:16:48;15.90;99.90
52397;DHT22;38322;53.108;6.308;2023-05-29T14:19:14;16.10;99.90
52397;DHT22;38322;53.108;6.308;2023-05-29T14:21:40;16.20;99.90
52397;DHT22;38322;53.108;6.308;2023-05-29T14:24:06;16.30;99.90
52397;DHT22;38322;53.108;6.308;2023-05-29T14:26:33;16.50;99.90
52397;DHT22;38322;53.108;6.308;2023-05-29T14:29:00;16.50;99.90
52397;DHT22;38322;53.108;6.308;2023-05-29T14:31:26;16.60;99.90
52397;DHT22;38322;53.108;6.308;2023-05-29T14:33:52;16.80;99.90
52397;DHT22;38322;53.108;6.308;2023-05-29T14:36:17;16.70;99.90
52397;DHT22;38322;53.108;6.308;2023-05-29T14:38:43;16.90;99.90
52397;DHT22;38322;53.108;6.308;2023-05-29T14:41:10;16.90;99.90
52397;DHT22;38322;53.108;6.308;2023-05-29T14:43:37;16.60;99.90
52397;DHT22;38322;53.108;6.308;2023-05-29T14:46:04;16.40;99.90
52397;DHT22;38322;53.108;6.308;2023-05-29T14:48:30;16.20;99.90
52397;DHT22;38322;53.108;6.308;2023-05-29T14:50:55;16.10;99.90
52397;DHT22;38322;53.108;6.308;2023-05-29T14:53:21;16.30;99.90
52397;DHT22;38322;53.108;6.308;2023-05-29T14:55:49;16.60;99.90
52397;DHT22;38322;53.108;6.308;2023-05-29T14:58:15;16.80;99.90
52397;DHT22;38322;53.108;6.308;2023-05-29T15:00:41;16.90;99.90
52397;DHT22;38322;53.108;6.308;2023-05-29T15:03:07;16.80;99.90
52397;DHT22;38322;53.108;6.308;2023-05-29T15:05:33;17.00;99.90
52397;DHT22;38322;53.108;6.308;2023-05-29T15:07:58;16.80;99.90
52397;DHT22;38322;53.108;6.308;2023-05-29T15:10:26;16.80;99.90
52397;DHT22;38322;53.108;6.308;2023-05-29T15:12:52;16.70;99.90
52397;DHT22;38322;53.108;6.308;2023-05-29T15:15:26;16.90;99.90
52397;DHT22;38322;53.108;6.308;2023-05-29T15:17:53;16.80;99.90
52397;DHT22;38322;53.108;6.308;2023-05-29T15:20:22;16.60;99.90
52397;DHT22;38322;53.108;6.308;2023-05-29T15:22:48;16.50;99.90
52397;DHT22;38322;53.108;6.308;2023-05-29T15:25:15;16.80;99.90
52397;DHT22;38322;53.108;6.308;2023-05-29T15:27:42;16.60;99.90
52397;DHT22;38322;53.108;6.308;2023-05-29T15:30:09;16.40;99.90
52397;DHT22;38322;53.108;6.308;2023-05-29T15:32:35;16.30;99.90
52397;DHT22;38322;53.108;6.308;2023-05-29T15:35:01;16.20;99.90
52397;DHT22;38322;53.108;6.308;2023-05-29T15:37:27;16.50;99.90
52397;DHT22;38322;53.108;6.308;2023-05-29T15:39:55;16.40;99.90
52397;DHT22;38322;53.108;6.308;2023-05-29T15:42:21;16.50;99.90
52397;DHT22;38322;53.108;6.308;2023-05-29T15:44:47;16.90;99.90
52397;DHT22;38322;53.108;6.308;2023-05-29T15:47:13;16.70;99.90
52397;DHT22;38322;53.108;6.308;2023-05-29T15:49:39;16.90;99.90
52397;DHT22;38322;53.108;6.308;2023-05-29T15:52:05;17.00;99.90
52397;DHT22;38322;53.108;6.308;2023-05-29T15:54:31;17.20;99.90
52397;DHT22;38322;53.108;6.308;2023-05-29T15:56:57;16.70;99.90
52397;DHT22;38322;53.108;6.308;2023-05-29T15:59:25;16.40;99.90
52397;DHT22;38322;53.108;6.308;2023-05-29T16:01:51;16.60;99.90
52397;DHT22;38322;53.108;6.308;2023-05-29T16:04:17;16.90;99.90
52397;DHT22;38322;53.108;6.308;2023-05-29T16:06:43;17.10;99.90
52397;DHT22;38322;53.108;6.308;2023-05-29T16:09:09;17.40;99.90
52397;DHT22;38322;53.108;6.308;2023-05-29T16:11:34;17.10;99.90
52397;DHT22;38322;53.108;6.308;2023-05-29T16:14:00;17.50;99.90
52397;DHT22;38322;53.108;6.308;2023-05-29T16:16:26;17.30;99.90
52397;DHT22;38322;53.108;6.308;2023-05-29T16:18:55;17.00;99.90
52397;DHT22;38322;53.108;6.308;2023-05-29T16:21:21;16.70;99.90
52397;DHT22;38322;53.108;6.308;2023-05-29T16:23:47;16.80;99.90
52397;DHT22;38322;53.108;6.308;2023-05-29T16:26:13;16.50;99.90
52397;DHT22;38322;53.108;6.308;2023-05-29T16:28:39;16.50;99.90
52397;DHT22;38322;53.108;6.308;2023-05-29T16:31:05;16.60;99.90
52397;DHT22;38322;53.108;6.308;2023-05-29T16:33:31;16.90;99.90
52397;DHT22;38322;53.108;6.308;2023-05-29T16:35:57;16.40;99.90
52397;DHT22;38322;53.108;6.308;2023-05-29T16:38:23;16.90;99.90
52397;DHT22;38322;53.108;6.308;2023-05-29T16:40:49;16.70;99.90
52397;DHT22;38322;53.108;6.308;2023-05-29T16:43:14;16.70;99.90
52397;DHT22;38322;53.108;6.308;2023-05-29T16:45:40;16.50;99.90
52397;DHT22;38322;53.108;6.308;2023-05-29T16:48:06;16.30;99.90
52397;DHT22;38322;53.108;6.308;2023-05-29T16:50:32;16.20;99.90
52397;DHT22;38322;53.108;6.308;2023-05-29T16:52:58;16.30;99.90
52397;DHT22;38322;53.108;6.308;2023-05-29T16:55:24;16.20;99.90
52397;DHT22;38322;53.108;6.308;2023-05-29T16:57:51;16.20;99.90
52397;DHT22;38322;53.108;6.308;2023-05-29T17:00:17;16.10;99.90
52397;DHT22;38322;53.108;6.308;2023-05-29T17:02:42;16.40;99.90
52397;DHT22;38322;53.108;6.308;2023-05-29T17:05:08;16.10;99.90
52397;DHT22;38322;53.108;6.308;2023-05-29T17:07:34;16.30;99.90
52397;DHT22;38322;53.108;6.308;2023-05-29T17:10:00;16.30;99.90
52397;DHT22;38322;53.108;6.308;2023-05-29T17:12:26;16.30;99.90
52397;DHT22;38322;53.108;6.308;2023-05-29T17:14:52;16.20;99.90
52397;DHT22;38322;53.108;6.308;2023-05-29T17:17:19;16.10;99.90
52397;DHT22;38322;53.108;6.308;2023-05-29T17:19:45;16.20;99.90
52397;DHT22;38322;53.108;6.308;2023-05-29T17:22:11;16.00;99.90
52397;DHT22;38322;53.108;6.308;2023-05-29T17:24:37;15.80;99.90
52397;DHT22;38322;53.108;6.308;2023-05-29T17:27:03;15.50;99.90
52397;DHT22;38322;53.108;6.308;2023-05-29T17:29:29;15.50;99.90
52397;DHT22;38322;53.108;6.308;2023-05-29T17:31:55;15.40;99.90
52397;DHT22;38322;53.108;6.308;2023-05-29T17:34:21;15.40;99.90
52397;DHT22;38322;53.108;6.308;2023-05-29T17:36:47;15.30;99.90
52397;DHT22;38322;53.108;6.308;2023-05-29T17:39:12;15.00;99.90
52397;DHT22;38322;53.108;6.308;2023-05-29T17:41:38;15.10;99.90
52397;DHT22;38322;53.108;6.308;2023-05-29T17:44:04;15.00;99.90
52397;DHT22;38322;53.108;6.308;2023-05-29T17:46:30;14.90;99.90
52397;DHT22;38322;53.108;6.308;2023-05-29T17:48:56;14.80;99.90
52397;DHT22;38322;53.108;6.308;2023-05-29T17:51:22;14.80;99.90
52397;DHT22;38322;53.108;6.308;2023-05-29T17:53:50;14.50;99.90
52397;DHT22;38322;53.108;6.308;2023-05-29T17:56:17;14.10;99.90
52397;DHT22;38322;53.108;6.308;2023-05-29T17:58:44;13.70;99.90
52397;DHT22;38322;53.108;6.308;2023-05-29T18:01:11;13.20;99.90
52397;DHT22;38322;53.108;6.308;2023-05-29T18:03:37;12.90;99.90
52397;DHT22;38322;53.108;6.308;2023-05-29T18:06:03;12.80;99.90
52397;DHT22;38322;53.108;6.308;2023-05-29T18:08:28;12.70;99.90
52397;DHT22;38322;53.108;6.308;2023-05-29T18:10:55;12.60;99.90
52397;DHT22;38322;53.108;6.308;2023-05-29T18:13:21;12.70;99.90
52397;DHT22;38322;53.108;6.308;2023-05-29T18:15:47;12.50;99.90
52397;DHT22;38322;53.108;6.308;2023-05-29T18:18:13;12.40;99.90
52397;DHT22;38322;53.108;6.308;2023-05-29T18:20:39;12.40;99.90
52397;DHT22;38322;53.108;6.308;2023-05-29T18:23:05;12.40;99.90
52397;DHT22;38322;53.108;6.308;2023-05-29T18:25:32;12.40;99.90
52397;DHT22;38322;53.108;6.308;2023-05-29T18:28:01;12.40;99.90
52397;DHT22;38322;53.108;6.308;2023-05-29T18:30:27;12.30;99.90
52397;DHT22;38322;53.108;6.308;2023-05-29T18:32:53;12.20;99.90
52397;DHT22;38322;53.108;6.308;2023-05-29T18:35:19;12.20;99.90
52397;DHT22;38322;53.108;6.308;2023-05-29T18:37:45;12.20;99.90
52397;DHT22;38322;53.108;6.308;2023-05-29T18:40:11;12.20;99.90
52397;DHT22;38322;53.108;6.308;2023-05-29T18:42:37;12.10;99.90
52397;DHT22;38322;53.108;6.308;2023-05-29T18:45:03;12.00;99.90
52397;DHT22;38322;53.108;6.308;2023-05-29T18:47:29;11.90;99.90
52397;DHT22;38322;53.108;6.308;2023-05-29T18:49:54;11.90;99.90
52397;DHT22;38322;53.108;6.308;2023-05-29T18:52:22;11.80;99.90
52397;DHT22;38322;53.108;6.308;2023-05-29T18:54:48;11.70;99.90
52397;DHT22;38322;53.108;6.308;2023-05-29T18:57:14;11.70;99.90
52397;DHT22;38322;53.108;6.308;2023-05-29T18:59:39;11.50;99.90
52397;DHT22;38322;53.108;6.308;2023-05-29T19:02:05;11.40;99.90
52397;DHT22;38322;53.108;6.308;2023-05-29T19:04:31;11.40;99.90
52397;DHT22;38322;53.108;6.308;2023-05-29T19:06:57;11.40;99.90
52397;DHT22;38322;53.108;6.308;2023-05-29T19:09:23;11.30;99.90
52397;DHT22;38322;53.108;6.308;2023-05-29T19:11:50;11.30;99.90
52397;DHT22;38322;53.108;6.308;2023-05-29T19:14:16;11.20;99.90
52397;DHT22;38322;53.108;6.308;2023-05-29T19:16:42;11.20;99.90
52397;DHT22;38322;53.108;6.308;2023-05-29T19:19:08;11.10;99.90
52397;DHT22;38322;53.108;6.308;2023-05-29T19:21:34;11.10;99.90
52397;DHT22;38322;53.108;6.308;2023-05-29T19:24:00;11.10;99.90
52397;DHT22;38322;53.108;6.308;2023-05-29T19:26:29;11.00;99.90
52397;DHT22;38322;53.108;6.308;2023-05-29T19:28:55;11.00;99.90
52397;DHT22;38322;53.108;6.308;2023-05-29T19:31:21;10.90;99.90
52397;DHT22;38322;53.108;6.308;2023-05-29T19:33:54;10.90;99.90
52397;DHT22;38322;53.108;6.308;2023-05-29T19:36:20;10.90;99.90
52397;DHT22;38322;53.108;6.308;2023-05-29T19:38:46;10.90;99.90
52397;DHT22;38322;53.108;6.308;2023-05-29T19:41:12;10.80;99.90
52397;DHT22;38322;53.108;6.308;2023-05-29T19:43:38;10.80;99.90
52397;DHT22;38322;53.108;6.308;2023-05-29T19:46:04;10.70;99.90
52397;DHT22;38322;53.108;6.308;2023-05-29T19:48:29;10.80;99.90
52397;DHT22;38322;53.108;6.308;2023-05-29T19:51:00;10.80;99.90
52397;DHT22;38322;53.108;6.308;2023-05-29T19:53:26;10.70;99.90
52397;DHT22;38322;53.108;6.308;2023-05-29T19:55:52;10.60;99.90
52397;DHT22;38322;53.108;6.308;2023-05-29T19:58:17;10.60;99.90
